PILOTS ONLINE: 276    ATC ONLINE: 22

KGKY

Arlington Municipal Airport

Location

City Arlington
Country  United States
Latitude 32° 39' 50" N
Longitude 97° 5' 39" W
Elevation 628 ft
Type Small Airport

Map

Weather

METAR
2014/10/21 09:53
KGKY 210953Z AUTO 00000KT 6SM BR CLR 13/11 A3005 RMK AO2 SLP168 T01280111 $
TAF
2014/10/21 09:06
TAF 
      AMD KGKY 210903Z 2109/2206 14004KT P6SM SCT250 
      TEMPO 2110/2114 5SM BR

Runways

16/34 6080 ft / 100 ft

Outbound flights

Callsign Flying to Pilot ATD/STD ETA Aircraft

Inbound flights

Callsign Flying from Pilot ATD ETA Aircraft